sensor_id;sensor_type;location;lat;lon;timestamp;temperature;humidity
51579;DHT22;47998;53.242;6.386;2023-11-19T00:00:37;11.80;99.90
51579;DHT22;47998;53.242;6.386;2023-11-19T00:05:29;12.50;99.90
51579;DHT22;47998;53.242;6.386;2023-11-19T00:07:55;11.10;99.90
51579;DHT22;47998;53.242;6.386;2023-11-19T00:10:21;11.50;99.90
51579;DHT22;47998;53.242;6.386;2023-11-19T00:12:48;12.50;99.90
51579;DHT22;47998;53.242;6.386;2023-11-19T00:15:15;12.40;99.90
51579;DHT22;47998;53.242;6.386;2023-11-19T00:17:43;12.00;99.90
51579;DHT22;47998;53.242;6.386;2023-11-19T00:20:17;11.20;99.90
51579;DHT22;47998;53.242;6.386;2023-11-19T00:22:43;12.40;99.90
51579;DHT22;47998;53.242;6.386;2023-11-19T00:25:09;11.20;99.90
51579;DHT22;47998;53.242;6.386;2023-11-19T00:27:36;12.40;99.90
51579;DHT22;47998;53.242;6.386;2023-11-19T00:30:04;12.40;99.90
51579;DHT22;47998;53.242;6.386;2023-11-19T00:32:32;11.90;99.90
51579;DHT22;47998;53.242;6.386;2023-11-19T00:34:58;11.30;99.90
51579;DHT22;47998;53.242;6.386;2023-11-19T00:37:23;11.30;99.90
51579;DHT22;47998;53.242;6.386;2023-11-19T00:39:49;11.40;99.90
51579;DHT22;47998;53.242;6.386;2023-11-19T00:42:15;11.70;99.90
51579;DHT22;47998;53.242;6.386;2023-11-19T00:44:41;12.40;99.90
51579;DHT22;47998;53.242;6.386;2023-11-19T00:47:07;11.60;99.90
51579;DHT22;47998;53.242;6.386;2023-11-19T00:49:33;11.40;99.90
51579;DHT22;47998;53.242;6.386;2023-11-19T00:51:59;12.40;99.90
51579;DHT22;47998;53.242;6.386;2023-11-19T00:54:25;12.40;99.90
51579;DHT22;47998;53.242;6.386;2023-11-19T00:56:54;11.40;99.90
51579;DHT22;47998;53.242;6.386;2023-11-19T00:59:20;12.30;99.90
51579;DHT22;47998;53.242;6.386;2023-11-19T01:01:47;11.40;99.90
51579;DHT22;47998;53.242;6.386;2023-11-19T01:04:16;11.40;99.90
51579;DHT22;47998;53.242;6.386;2023-11-19T01:06:42;11.40;99.90
51579;DHT22;47998;53.242;6.386;2023-11-19T01:09:08;11.40;99.90
51579;DHT22;47998;53.242;6.386;2023-11-19T01:11:35;11.70;99.90
51579;DHT22;47998;53.242;6.386;2023-11-19T01:14:01;11.50;99.90
51579;DHT22;47998;53.242;6.386;2023-11-19T01:16:27;11.50;99.90
51579;DHT22;47998;53.242;6.386;2023-11-19T01:18:53;11.60;99.90
51579;DHT22;47998;53.242;6.386;2023-11-19T01:21:19;11.80;99.90
51579;DHT22;47998;53.242;6.386;2023-11-19T01:23:45;11.60;99.90
51579;DHT22;47998;53.242;6.386;2023-11-19T01:26:12;11.90;99.90
51579;DHT22;47998;53.242;6.386;2023-11-19T01:28:39;11.80;99.90
51579;DHT22;47998;53.242;6.386;2023-11-19T01:31:05;11.70;99.90
51579;DHT22;47998;53.242;6.386;2023-11-19T01:33:36;11.60;99.90
51579;DHT22;47998;53.242;6.386;2023-11-19T01:36:01;11.80;99.90
51579;DHT22;47998;53.242;6.386;2023-11-19T01:38:27;11.90;99.90
51579;DHT22;47998;53.242;6.386;2023-11-19T01:40:59;11.60;99.90
51579;DHT22;47998;53.242;6.386;2023-11-19T01:43:35;11.70;99.90
51579;DHT22;47998;53.242;6.386;2023-11-19T01:46:02;11.60;99.90
51579;DHT22;47998;53.242;6.386;2023-11-19T01:48:31;11.60;99.90
51579;DHT22;47998;53.242;6.386;2023-11-19T01:50:58;11.60;99.90
51579;DHT22;47998;53.242;6.386;2023-11-19T01:53:28;11.60;99.90
51579;DHT22;47998;53.242;6.386;2023-11-19T01:55:54;11.70;99.90
51579;DHT22;47998;53.242;6.386;2023-11-19T01:58:21;11.70;99.90
51579;DHT22;47998;53.242;6.386;2023-11-19T02:00:48;11.50;99.90
51579;DHT22;47998;53.242;6.386;2023-11-19T02:03:15;11.50;99.90
51579;DHT22;47998;53.242;6.386;2023-11-19T02:05:41;11.50;99.90
51579;DHT22;47998;53.242;6.386;2023-11-19T02:08:07;11.60;99.90
51579;DHT22;47998;53.242;6.386;2023-11-19T02:10:33;11.60;99.90
51579;DHT22;47998;53.242;6.386;2023-11-19T02:12:59;11.50;99.90
51579;DHT22;47998;53.242;6.386;2023-11-19T02:15:26;11.50;99.90
51579;DHT22;47998;53.242;6.386;2023-11-19T02:17:52;11.50;99.90
51579;DHT22;47998;53.242;6.386;2023-11-19T02:20:18;11.50;99.90
51579;DHT22;47998;53.242;6.386;2023-11-19T02:22:49;11.60;99.90
51579;DHT22;47998;53.242;6.386;2023-11-19T02:25:30;11.60;99.90
51579;DHT22;47998;53.242;6.386;2023-11-19T02:28:02;11.60;99.90
51579;DHT22;47998;53.242;6.386;2023-11-19T02:30:29;11.60;99.90
51579;DHT22;47998;53.242;6.386;2023-11-19T02:32:58;11.50;99.90
51579;DHT22;47998;53.242;6.386;2023-11-19T02:35:27;11.40;99.90
51579;DHT22;47998;53.242;6.386;2023-11-19T02:37:56;11.50;99.90
51579;DHT22;47998;53.242;6.386;2023-11-19T02:40:21;11.40;99.90
51579;DHT22;47998;53.242;6.386;2023-11-19T02:42:49;11.50;99.90
51579;DHT22;47998;53.242;6.386;2023-11-19T02:45:15;11.50;99.90
51579;DHT22;47998;53.242;6.386;2023-11-19T02:47:41;11.50;99.90
51579;DHT22;47998;53.242;6.386;2023-11-19T02:50:09;11.60;99.90
51579;DHT22;47998;53.242;6.386;2023-11-19T02:52:43;11.60;99.90
51579;DHT22;47998;53.242;6.386;2023-11-19T02:55:13;11.50;99.90
51579;DHT22;47998;53.242;6.386;2023-11-19T02:57:40;11.40;99.90
51579;DHT22;47998;53.242;6.386;2023-11-19T03:00:16;11.40;99.90
51579;DHT22;47998;53.242;6.386;2023-11-19T03:02:43;11.40;99.90
51579;DHT22;47998;53.242;6.386;2023-11-19T03:05:15;11.30;99.90
51579;DHT22;47998;53.242;6.386;2023-11-19T03:07:43;11.30;99.90
51579;DHT22;47998;53.242;6.386;2023-11-19T03:10:12;11.30;99.90
51579;DHT22;47998;53.242;6.386;2023-11-19T03:12:41;11.30;99.90
51579;DHT22;47998;53.242;6.386;2023-11-19T03:15:08;11.30;99.90
51579;DHT22;47998;53.242;6.386;2023-11-19T03:17:41;11.30;99.90
51579;DHT22;47998;53.242;6.386;2023-11-19T03:20:08;11.30;99.90
51579;DHT22;47998;53.242;6.386;2023-11-19T03:22:41;11.40;99.90
51579;DHT22;47998;53.242;6.386;2023-11-19T03:25:07;11.40;99.90
51579;DHT22;47998;53.242;6.386;2023-11-19T03:27:35;11.30;99.90
51579;DHT22;47998;53.242;6.386;2023-11-19T03:30:11;11.30;99.90
51579;DHT22;47998;53.242;6.386;2023-11-19T03:32:37;11.40;99.90
51579;DHT22;47998;53.242;6.386;2023-11-19T03:35:04;11.40;99.90
51579;DHT22;47998;53.242;6.386;2023-11-19T03:37:32;11.40;99.90
51579;DHT22;47998;53.242;6.386;2023-11-19T03:39:58;11.40;99.90
51579;DHT22;47998;53.242;6.386;2023-11-19T03:42:28;11.40;99.90
51579;DHT22;47998;53.242;6.386;2023-11-19T03:44:56;11.40;99.90
51579;DHT22;47998;53.242;6.386;2023-11-19T03:47:22;11.40;99.90
51579;DHT22;47998;53.242;6.386;2023-11-19T03:49:49;11.50;99.90
51579;DHT22;47998;53.242;6.386;2023-11-19T03:52:15;11.50;99.90
51579;DHT22;47998;53.242;6.386;2023-11-19T03:54:40;11.50;99.90
51579;DHT22;47998;53.242;6.386;2023-11-19T03:57:06;11.50;99.90
51579;DHT22;47998;53.242;6.386;2023-11-19T03:59:32;11.50;99.90
51579;DHT22;47998;53.242;6.386;2023-11-19T04:01:59;11.50;99.90
51579;DHT22;47998;53.242;6.386;2023-11-19T04:04:26;11.60;99.90
51579;DHT22;47998;53.242;6.386;2023-11-19T04:06:55;11.50;99.90
51579;DHT22;47998;53.242;6.386;2023-11-19T04:09:22;11.50;99.90
51579;DHT22;47998;53.242;6.386;2023-11-19T04:11:47;11.50;99.90
51579;DHT22;47998;53.242;6.386;2023-11-19T04:14:14;11.50;99.90
51579;DHT22;47998;53.242;6.386;2023-11-19T04:16:40;11.40;99.90
51579;DHT22;47998;53.242;6.386;2023-11-19T04:19:06;11.50;99.90
51579;DHT22;47998;53.242;6.386;2023-11-19T04:21:33;11.50;99.90
51579;DHT22;47998;53.242;6.386;2023-11-19T04:23:59;11.40;99.90
51579;DHT22;47998;53.242;6.386;2023-11-19T04:26:25;11.50;99.90
51579;DHT22;47998;53.242;6.386;2023-11-19T04:28:50;11.40;99.90
51579;DHT22;47998;53.242;6.386;2023-11-19T04:31:16;11.40;99.90
51579;DHT22;47998;53.242;6.386;2023-11-19T04:33:42;11.40;99.90
51579;DHT22;47998;53.242;6.386;2023-11-19T04:36:12;11.30;99.90
51579;DHT22;47998;53.242;6.386;2023-11-19T04:38:40;11.30;99.90
51579;DHT22;47998;53.242;6.386;2023-11-19T04:41:06;11.30;99.90
51579;DHT22;47998;53.242;6.386;2023-11-19T04:43:34;11.30;99.90
51579;DHT22;47998;53.242;6.386;2023-11-19T04:46:03;11.40;99.90
51579;DHT22;47998;53.242;6.386;2023-11-19T04:48:29;11.30;99.90
51579;DHT22;47998;53.242;6.386;2023-11-19T04:50:55;11.40;99.90
51579;DHT22;47998;53.242;6.386;2023-11-19T04:53:21;11.40;99.90
51579;DHT22;47998;53.242;6.386;2023-11-19T04:55:47;11.40;99.90
51579;DHT22;47998;53.242;6.386;2023-11-19T04:58:13;11.40;99.90
51579;DHT22;47998;53.242;6.386;2023-11-19T05:00:38;11.40;99.90
51579;DHT22;47998;53.242;6.386;2023-11-19T05:03:04;11.30;99.90
51579;DHT22;47998;53.242;6.386;2023-11-19T05:05:30;11.30;99.90
51579;DHT22;47998;53.242;6.386;2023-11-19T05:07:56;11.30;99.90
51579;DHT22;47998;53.242;6.386;2023-11-19T05:10:22;11.20;99.90
51579;DHT22;47998;53.242;6.386;2023-11-19T05:12:48;11.20;99.90
51579;DHT22;47998;53.242;6.386;2023-11-19T05:15:14;11.10;99.90
51579;DHT22;47998;53.242;6.386;2023-11-19T05:17:40;11.10;99.90
51579;DHT22;47998;53.242;6.386;2023-11-19T05:20:06;11.10;99.90
51579;DHT22;47998;53.242;6.386;2023-11-19T05:22:40;11.10;99.90
51579;DHT22;47998;53.242;6.386;2023-11-19T05:25:06;11.10;99.90
51579;DHT22;47998;53.242;6.386;2023-11-19T05:27:32;11.20;99.90
51579;DHT22;47998;53.242;6.386;2023-11-19T05:29:58;11.20;99.90
51579;DHT22;47998;53.242;6.386;2023-11-19T05:32:24;11.20;99.90
51579;DHT22;47998;53.242;6.386;2023-11-19T05:34:49;11.10;99.90
51579;DHT22;47998;53.242;6.386;2023-11-19T05:37:15;11.10;99.90
51579;DHT22;47998;53.242;6.386;2023-11-19T05:39:41;11.20;99.90
51579;DHT22;47998;53.242;6.386;2023-11-19T05:42:07;11.20;99.90
51579;DHT22;47998;53.242;6.386;2023-11-19T05:44:32;11.20;99.90
51579;DHT22;47998;53.242;6.386;2023-11-19T05:46:58;11.30;99.90
51579;DHT22;47998;53.242;6.386;2023-11-19T05:49:24;11.20;99.90
51579;DHT22;47998;53.242;6.386;2023-11-19T05:51:50;11.20;99.90
51579;DHT22;47998;53.242;6.386;2023-11-19T05:54:16;11.20;99.90
51579;DHT22;47998;53.242;6.386;2023-11-19T05:56:47;11.20;99.90
51579;DHT22;47998;53.242;6.386;2023-11-19T05:59:14;11.20;99.90
51579;DHT22;47998;53.242;6.386;2023-11-19T06:01:46;11.10;99.90
51579;DHT22;47998;53.242;6.386;2023-11-19T06:04:12;11.10;99.90
51579;DHT22;47998;53.242;6.386;2023-11-19T06:06:38;11.10;99.90
51579;DHT22;47998;53.242;6.386;2023-11-19T06:09:04;11.10;99.90
51579;DHT22;47998;53.242;6.386;2023-11-19T06:11:31;11.10;99.90
51579;DHT22;47998;53.242;6.386;2023-11-19T06:13:57;11.10;99.90
51579;DHT22;47998;53.242;6.386;2023-11-19T06:16:23;11.10;99.90
51579;DHT22;47998;53.242;6.386;2023-11-19T06:18:48;11.00;99.90
51579;DHT22;47998;53.242;6.386;2023-11-19T06:21:14;11.00;99.90
51579;DHT22;47998;53.242;6.386;2023-11-19T06:23:40;11.00;99.90
51579;DHT22;47998;53.242;6.386;2023-11-19T06:26:06;11.00;99.90
51579;DHT22;47998;53.242;6.386;2023-11-19T06:28:32;11.00;99.90
51579;DHT22;47998;53.242;6.386;2023-11-19T06:30:57;10.90;99.90
51579;DHT22;47998;53.242;6.386;2023-11-19T06:33:24;10.90;99.90
51579;DHT22;47998;53.242;6.386;2023-11-19T06:35:50;10.90;99.90
51579;DHT22;47998;53.242;6.386;2023-11-19T06:38:16;10.90;99.90
51579;DHT22;47998;53.242;6.386;2023-11-19T06:40:41;10.80;99.90
51579;DHT22;47998;53.242;6.386;2023-11-19T06:43:07;10.80;99.90
51579;DHT22;47998;53.242;6.386;2023-11-19T06:45:36;10.80;99.90
51579;DHT22;47998;53.242;6.386;2023-11-19T06:48:04;10.80;99.90
51579;DHT22;47998;53.242;6.386;2023-11-19T06:50:33;10.80;99.90
51579;DHT22;47998;53.242;6.386;2023-11-19T06:52:59;10.80;99.90
51579;DHT22;47998;53.242;6.386;2023-11-19T06:55:26;10.70;99.90
51579;DHT22;47998;53.242;6.386;2023-11-19T06:57:52;10.70;99.90
51579;DHT22;47998;53.242;6.386;2023-11-19T07:00:18;10.80;99.90
51579;DHT22;47998;53.242;6.386;2023-11-19T07:02:44;10.70;99.90
51579;DHT22;47998;53.242;6.386;2023-11-19T07:05:10;10.60;99.90
51579;DHT22;47998;53.242;6.386;2023-11-19T07:07:37;10.60;99.90
51579;DHT22;47998;53.242;6.386;2023-11-19T07:10:03;10.60;99.90
51579;DHT22;47998;53.242;6.386;2023-11-19T07:12:30;10.70;99.90
51579;DHT22;47998;53.242;6.386;2023-11-19T07:14:56;10.60;99.90
51579;DHT22;47998;53.242;6.386;2023-11-19T07:17:22;10.60;99.90
51579;DHT22;47998;53.242;6.386;2023-11-19T07:19:50;10.60;99.90
51579;DHT22;47998;53.242;6.386;2023-11-19T07:22:17;10.50;99.90
51579;DHT22;47998;53.242;6.386;2023-11-19T07:24:43;10.60;99.90
51579;DHT22;47998;53.242;6.386;2023-11-19T07:27:08;10.60;99.90
51579;DHT22;47998;53.242;6.386;2023-11-19T07:29:35;10.60;99.90
51579;DHT22;47998;53.242;6.386;2023-11-19T07:32:01;10.50;99.90
51579;DHT22;47998;53.242;6.386;2023-11-19T07:34:30;10.50;99.90
51579;DHT22;47998;53.242;6.386;2023-11-19T07:36:56;10.60;99.90
51579;DHT22;47998;53.242;6.386;2023-11-19T07:39:31;10.60;99.90
51579;DHT22;47998;53.242;6.386;2023-11-19T07:41:56;10.70;99.90
51579;DHT22;47998;53.242;6.386;2023-11-19T07:44:22;10.80;99.90
51579;DHT22;47998;53.242;6.386;2023-11-19T07:46:48;10.80;99.90
51579;DHT22;47998;53.242;6.386;2023-11-19T07:49:14;10.70;99.90
51579;DHT22;47998;53.242;6.386;2023-11-19T07:51:40;10.80;99.90
51579;DHT22;47998;53.242;6.386;2023-11-19T07:54:07;10.70;99.90
51579;DHT22;47998;53.242;6.386;2023-11-19T07:56:33;10.70;99.90
51579;DHT22;47998;53.242;6.386;2023-11-19T07:59:02;10.70;99.90
51579;DHT22;47998;53.242;6.386;2023-11-19T08:01:28;10.80;99.90
51579;DHT22;47998;53.242;6.386;2023-11-19T08:03:54;10.80;99.90
51579;DHT22;47998;53.242;6.386;2023-11-19T08:06:20;10.80;99.90
51579;DHT22;47998;53.242;6.386;2023-11-19T08:08:46;10.80;99.90
51579;DHT22;47998;53.242;6.386;2023-11-19T08:11:13;10.90;99.90
51579;DHT22;47998;53.242;6.386;2023-11-19T08:13:39;10.80;99.90
51579;DHT22;47998;53.242;6.386;2023-11-19T08:16:05;10.80;99.90
51579;DHT22;47998;53.242;6.386;2023-11-19T08:18:31;10.70;99.90
51579;DHT22;47998;53.242;6.386;2023-11-19T08:20:57;10.70;99.90
51579;DHT22;47998;53.242;6.386;2023-11-19T08:23:24;10.60;99.90
51579;DHT22;47998;53.242;6.386;2023-11-19T08:25:51;10.70;99.90
51579;DHT22;47998;53.242;6.386;2023-11-19T08:28:18;10.80;99.90
51579;DHT22;47998;53.242;6.386;2023-11-19T08:30:43;10.80;99.90
51579;DHT22;47998;53.242;6.386;2023-11-19T08:33:10;10.90;99.90
51579;DHT22;47998;53.242;6.386;2023-11-19T08:35:35;10.90;99.90
51579;DHT22;47998;53.242;6.386;2023-11-19T08:38:01;10.90;99.90
51579;DHT22;47998;53.242;6.386;2023-11-19T08:40:27;10.90;99.90
51579;DHT22;47998;53.242;6.386;2023-11-19T08:42:53;10.90;99.90
51579;DHT22;47998;53.242;6.386;2023-11-19T08:45:19;10.90;99.90
51579;DHT22;47998;53.242;6.386;2023-11-19T08:47:45;10.90;99.90
51579;DHT22;47998;53.242;6.386;2023-11-19T08:50:11;11.00;99.90
51579;DHT22;47998;53.242;6.386;2023-11-19T08:52:38;11.00;99.90
51579;DHT22;47998;53.242;6.386;2023-11-19T08:55:04;11.00;99.90
51579;DHT22;47998;53.242;6.386;2023-11-19T08:57:31;10.90;99.90
51579;DHT22;47998;53.242;6.386;2023-11-19T08:59:58;10.90;99.90
51579;DHT22;47998;53.242;6.386;2023-11-19T09:02:25;10.90;99.90
51579;DHT22;47998;53.242;6.386;2023-11-19T09:04:51;10.90;99.90
51579;DHT22;47998;53.242;6.386;2023-11-19T09:07:17;11.00;99.90
51579;DHT22;47998;53.242;6.386;2023-11-19T09:09:42;11.00;99.90
51579;DHT22;47998;53.242;6.386;2023-11-19T09:12:08;11.00;99.90
51579;DHT22;47998;53.242;6.386;2023-11-19T09:14:34;11.00;99.90
51579;DHT22;47998;53.242;6.386;2023-11-19T09:17:00;11.00;99.90
51579;DHT22;47998;53.242;6.386;2023-11-19T09:19:26;11.10;99.90
51579;DHT22;47998;53.242;6.386;2023-11-19T09:21:53;11.10;99.90
51579;DHT22;47998;53.242;6.386;2023-11-19T09:24:18;11.20;99.90
51579;DHT22;47998;53.242;6.386;2023-11-19T09:26:44;11.30;99.90
51579;DHT22;47998;53.242;6.386;2023-11-19T09:29:10;11.40;99.90
51579;DHT22;47998;53.242;6.386;2023-11-19T09:31:39;11.50;99.90
51579;DHT22;47998;53.242;6.386;2023-11-19T09:34:05;11.40;99.90
51579;DHT22;47998;53.242;6.386;2023-11-19T09:36:31;11.50;99.90
51579;DHT22;47998;53.242;6.386;2023-11-19T09:38:57;11.50;99.90
51579;DHT22;47998;53.242;6.386;2023-11-19T09:41:25;11.50;99.90
51579;DHT22;47998;53.242;6.386;2023-11-19T09:43:53;11.50;99.90
51579;DHT22;47998;53.242;6.386;2023-11-19T09:46:19;11.60;99.90
51579;DHT22;47998;53.242;6.386;2023-11-19T09:48:46;11.60;99.90
51579;DHT22;47998;53.242;6.386;2023-11-19T09:51:13;11.60;99.90
51579;DHT22;47998;53.242;6.386;2023-11-19T09:53:40;11.70;99.90
51579;DHT22;47998;53.242;6.386;2023-11-19T09:56:06;11.70;99.90
51579;DHT22;47998;53.242;6.386;2023-11-19T09:58:33;11.70;99.90
51579;DHT22;47998;53.242;6.386;2023-11-19T10:00:59;11.70;99.90
51579;DHT22;47998;53.242;6.386;2023-11-19T10:03:35;11.60;99.90
51579;DHT22;47998;53.242;6.386;2023-11-19T10:06:09;11.70;99.90
51579;DHT22;47998;53.242;6.386;2023-11-19T10:08:38;11.70;99.90
51579;DHT22;47998;53.242;6.386;2023-11-19T10:11:07;11.70;99.90
51579;DHT22;47998;53.242;6.386;2023-11-19T10:13:36;11.80;99.90
51579;DHT22;47998;53.242;6.386;2023-11-19T10:16:09;11.80;99.90
51579;DHT22;47998;53.242;6.386;2023-11-19T10:18:37;11.80;99.90
51579;DHT22;47998;53.242;6.386;2023-11-19T10:21:04;11.80;99.90
51579;DHT22;47998;53.242;6.386;2023-11-19T10:23:31;11.80;99.90
51579;DHT22;47998;53.242;6.386;2023-11-19T10:26:04;11.70;99.90
51579;DHT22;47998;53.242;6.386;2023-11-19T10:28:41;11.80;99.90
51579;DHT22;47998;53.242;6.386;2023-11-19T10:31:09;11.90;99.90
51579;DHT22;47998;53.242;6.386;2023-11-19T10:33:35;11.80;99.90
51579;DHT22;47998;53.242;6.386;2023-11-19T10:36:01;11.80;99.90
51579;DHT22;47998;53.242;6.386;2023-11-19T10:38:27;11.90;99.90
51579;DHT22;47998;53.242;6.386;2023-11-19T10:40:53;12.10;99.90
51579;DHT22;47998;53.242;6.386;2023-11-19T10:43:23;12.20;99.90
51579;DHT22;47998;53.242;6.386;2023-11-19T10:45:49;12.20;99.90
51579;DHT22;47998;53.242;6.386;2023-11-19T10:48:15;12.10;99.90
51579;DHT22;47998;53.242;6.386;2023-11-19T10:50:43;12.20;99.90
51579;DHT22;47998;53.242;6.386;2023-11-19T10:53:11;12.10;99.90
51579;DHT22;47998;53.242;6.386;2023-11-19T10:55:39;12.10;99.90
51579;DHT22;47998;53.242;6.386;2023-11-19T10:58:06;12.20;99.90
51579;DHT22;47998;53.242;6.386;2023-11-19T11:00:51;12.10;99.90
51579;DHT22;47998;53.242;6.386;2023-11-19T11:03:22;12.10;99.90
51579;DHT22;47998;53.242;6.386;2023-11-19T11:05:51;12.10;99.90
51579;DHT22;47998;53.242;6.386;2023-11-19T11:08:18;12.00;99.90
51579;DHT22;47998;53.242;6.386;2023-11-19T11:10:53;12.00;99.90
51579;DHT22;47998;53.242;6.386;2023-11-19T11:13:23;11.90;99.90
51579;DHT22;47998;53.242;6.386;2023-11-19T11:15:53;12.00;99.90
51579;DHT22;47998;53.242;6.386;2023-11-19T11:18:22;11.90;99.90
51579;DHT22;47998;53.242;6.386;2023-11-19T11:20:54;11.90;99.90
51579;DHT22;47998;53.242;6.386;2023-11-19T11:26:14;11.90;99.90
51579;DHT22;47998;53.242;6.386;2023-11-19T11:29:02;11.90;99.90
51579;DHT22;47998;53.242;6.386;2023-11-19T11:31:52;11.90;99.90
51579;DHT22;47998;53.242;6.386;2023-11-19T11:37:32;12.00;99.90
51579;DHT22;47998;53.242;6.386;2023-11-19T11:39:58;11.90;99.90
51579;DHT22;47998;53.242;6.386;2023-11-19T11:45:10;11.80;99.90
51579;DHT22;47998;53.242;6.386;2023-11-19T11:50:18;11.40;99.90
51579;DHT22;47998;53.242;6.386;2023-11-19T11:55:26;11.40;99.90
51579;DHT22;47998;53.242;6.386;2023-11-19T11:57:52;11.50;99.90
51579;DHT22;47998;53.242;6.386;2023-11-19T12:00:29;11.50;99.90
51579;DHT22;47998;53.242;6.386;2023-11-19T12:02:56;11.60;99.90
51579;DHT22;47998;53.242;6.386;2023-11-19T12:05:22;11.70;99.90
51579;DHT22;47998;53.242;6.386;2023-11-19T12:08:01;12.00;99.90
51579;DHT22;47998;53.242;6.386;2023-11-19T12:13:07;12.40;99.90
51579;DHT22;47998;53.242;6.386;2023-11-19T12:15:33;12.70;99.90
51579;DHT22;47998;53.242;6.386;2023-11-19T12:17:59;12.70;99.90
51579;DHT22;47998;53.242;6.386;2023-11-19T12:20:26;12.50;99.90
51579;DHT22;47998;53.242;6.386;2023-11-19T12:22:52;12.40;99.90
51579;DHT22;47998;53.242;6.386;2023-11-19T12:25:19;12.30;99.90
51579;DHT22;47998;53.242;6.386;2023-11-19T12:27:47;12.40;99.90
51579;DHT22;47998;53.242;6.386;2023-11-19T12:30:18;12.40;99.90
51579;DHT22;47998;53.242;6.386;2023-11-19T12:32:46;12.50;99.90
51579;DHT22;47998;53.242;6.386;2023-11-19T12:35:12;12.40;99.90
51579;DHT22;47998;53.242;6.386;2023-11-19T12:37:45;12.40;99.90
51579;DHT22;47998;53.242;6.386;2023-11-19T12:40:22;12.30;99.90
51579;DHT22;47998;53.242;6.386;2023-11-19T12:42:48;12.20;99.90
51579;DHT22;47998;53.242;6.386;2023-11-19T12:45:14;12.30;99.90
51579;DHT22;47998;53.242;6.386;2023-11-19T12:47:45;12.20;99.90
51579;DHT22;47998;53.242;6.386;2023-11-19T12:50:13;12.20;99.90
51579;DHT22;47998;53.242;6.386;2023-11-19T12:52:40;12.10;99.90
51579;DHT22;47998;53.242;6.386;2023-11-19T12:55:24;12.10;99.90
51579;DHT22;47998;53.242;6.386;2023-11-19T12:57:51;12.00;99.90
51579;DHT22;47998;53.242;6.386;2023-11-19T13:00:24;12.00;99.90
51579;DHT22;47998;53.242;6.386;2023-11-19T13:02:57;11.90;99.90
51579;DHT22;47998;53.242;6.386;2023-11-19T13:08:06;11.90;99.90
51579;DHT22;47998;53.242;6.386;2023-11-19T13:10:33;11.90;99.90
51579;DHT22;47998;53.242;6.386;2023-11-19T13:13:06;12.00;99.90
51579;DHT22;47998;53.242;6.386;2023-11-19T13:15:34;12.00;99.90
51579;DHT22;47998;53.242;6.386;2023-11-19T13:18:00;12.00;99.90
51579;DHT22;47998;53.242;6.386;2023-11-19T13:20:26;12.00;99.90
51579;DHT22;47998;53.242;6.386;2023-11-19T13:23:03;12.00;99.90
51579;DHT22;47998;53.242;6.386;2023-11-19T13:25:29;11.90;99.90
51579;DHT22;47998;53.242;6.386;2023-11-19T13:27:56;11.90;99.90
51579;DHT22;47998;53.242;6.386;2023-11-19T13:30:23;11.90;99.90
51579;DHT22;47998;53.242;6.386;2023-11-19T13:32:50;11.90;99.90
51579;DHT22;47998;53.242;6.386;2023-11-19T13:35:16;11.80;99.90
51579;DHT22;47998;53.242;6.386;2023-11-19T13:37:43;11.90;99.90
51579;DHT22;47998;53.242;6.386;2023-11-19T13:40:10;11.90;99.90
51579;DHT22;47998;53.242;6.386;2023-11-19T13:42:44;12.00;99.90
51579;DHT22;47998;53.242;6.386;2023-11-19T13:45:14;12.00;99.90
51579;DHT22;47998;53.242;6.386;2023-11-19T13:47:44;12.00;99.90
51579;DHT22;47998;53.242;6.386;2023-11-19T13:50:15;12.00;99.90
51579;DHT22;47998;53.242;6.386;2023-11-19T13:52:43;11.90;99.90
51579;DHT22;47998;53.242;6.386;2023-11-19T13:55:11;11.80;99.90
51579;DHT22;47998;53.242;6.386;2023-11-19T13:57:41;11.80;99.90
51579;DHT22;47998;53.242;6.386;2023-11-19T14:00:11;11.70;99.90
51579;DHT22;47998;53.242;6.386;2023-11-19T14:02:42;11.70;99.90
51579;DHT22;47998;53.242;6.386;2023-11-19T14:05:09;11.60;99.90
51579;DHT22;47998;53.242;6.386;2023-11-19T14:07:36;11.50;99.90
51579;DHT22;47998;53.242;6.386;2023-11-19T14:10:02;11.50;99.90
51579;DHT22;47998;53.242;6.386;2023-11-19T14:12:28;11.40;99.90
51579;DHT22;47998;53.242;6.386;2023-11-19T14:14:54;11.20;99.90
51579;DHT22;47998;53.242;6.386;2023-11-19T14:17:20;11.10;99.90
51579;DHT22;47998;53.242;6.386;2023-11-19T14:19:46;11.00;99.90
51579;DHT22;47998;53.242;6.386;2023-11-19T14:22:11;11.00;99.90
51579;DHT22;47998;53.242;6.386;2023-11-19T14:24:38;11.00;99.90
51579;DHT22;47998;53.242;6.386;2023-11-19T14:27:05;11.10;99.90
51579;DHT22;47998;53.242;6.386;2023-11-19T14:29:31;11.10;99.90
51579;DHT22;47998;53.242;6.386;2023-11-19T14:31:57;11.10;99.90
51579;DHT22;47998;53.242;6.386;2023-11-19T14:34:24;11.10;99.90
51579;DHT22;47998;53.242;6.386;2023-11-19T14:36:52;11.20;99.90
51579;DHT22;47998;53.242;6.386;2023-11-19T14:39:19;11.20;99.90
51579;DHT22;47998;53.242;6.386;2023-11-19T14:41:45;11.20;99.90
51579;DHT22;47998;53.242;6.386;2023-11-19T14:44:10;11.20;99.90
51579;DHT22;47998;53.242;6.386;2023-11-19T14:46:36;11.30;99.90
51579;DHT22;47998;53.242;6.386;2023-11-19T14:49:02;11.20;99.90
51579;DHT22;47998;53.242;6.386;2023-11-19T14:51:30;11.20;99.90
51579;DHT22;47998;53.242;6.386;2023-11-19T14:53:56;11.20;99.90
51579;DHT22;47998;53.242;6.386;2023-11-19T14:56:21;11.20;99.90
51579;DHT22;47998;53.242;6.386;2023-11-19T14:58:47;11.20;99.90
51579;DHT22;47998;53.242;6.386;2023-11-19T15:01:16;11.20;99.90
51579;DHT22;47998;53.242;6.386;2023-11-19T15:03:42;11.20;99.90
51579;DHT22;47998;53.242;6.386;2023-11-19T15:06:08;11.10;99.90
51579;DHT22;47998;53.242;6.386;2023-11-19T15:08:33;11.10;99.90
51579;DHT22;47998;53.242;6.386;2023-11-19T15:10:59;11.10;99.90
51579;DHT22;47998;53.242;6.386;2023-11-19T15:13:27;11.00;99.90
51579;DHT22;47998;53.242;6.386;2023-11-19T15:15:53;11.00;99.90
51579;DHT22;47998;53.242;6.386;2023-11-19T15:18:21;11.10;99.90
51579;DHT22;47998;53.242;6.386;2023-11-19T15:20:46;11.10;99.90
51579;DHT22;47998;53.242;6.386;2023-11-19T15:23:13;11.10;99.90
51579;DHT22;47998;53.242;6.386;2023-11-19T15:25:39;11.20;99.90
51579;DHT22;47998;53.242;6.386;2023-11-19T15:28:05;11.10;99.90
51579;DHT22;47998;53.242;6.386;2023-11-19T15:30:31;11.20;99.90
51579;DHT22;47998;53.242;6.386;2023-11-19T15:32:56;11.20;99.90
51579;DHT22;47998;53.242;6.386;2023-11-19T15:35:22;11.20;99.90
51579;DHT22;47998;53.242;6.386;2023-11-19T15:37:48;11.20;99.90
51579;DHT22;47998;53.242;6.386;2023-11-19T15:40:14;11.20;99.90
51579;DHT22;47998;53.242;6.386;2023-11-19T15:42:40;11.20;99.90
51579;DHT22;47998;53.242;6.386;2023-11-19T15:45:07;11.20;99.90
51579;DHT22;47998;53.242;6.386;2023-11-19T15:47:35;11.20;99.90
51579;DHT22;47998;53.242;6.386;2023-11-19T15:50:02;11.20;99.90
51579;DHT22;47998;53.242;6.386;2023-11-19T15:52:31;11.20;99.90